sensor_id;sensor_type;location;lat;lon;timestamp;pressure;altitude;pressure_sealevel;temperature;humidity
59877;BME280;74472;51.140;17.184;2023-12-20T00:01:32;99524.41;;;7.64;85.92
59877;BME280;74472;51.140;17.184;2023-12-20T00:03:57;99533.50;;;7.71;85.73
59877;BME280;74472;51.140;17.184;2023-12-20T00:06:23;99529.81;;;7.73;85.57
59877;BME280;74472;51.140;17.184;2023-12-20T00:08:49;99533.28;;;7.74;85.68
59877;BME280;74472;51.140;17.184;2023-12-20T00:11:14;99523.00;;;7.71;85.83
59877;BME280;74472;51.140;17.184;2023-12-20T00:13:39;99529.81;;;7.73;85.93
59877;BME280;74472;51.140;17.184;2023-12-20T00:16:08;99529.91;;;7.72;85.71
59877;BME280;74472;51.140;17.184;2023-12-20T00:18:34;99532.31;;;7.75;86.15
59877;BME280;74472;51.140;17.184;2023-12-20T00:21:00;99528.03;;;7.74;86.03
59877;BME280;74472;51.140;17.184;2023-12-20T00:23:25;99525.19;;;7.77;85.82
59877;BME280;74472;51.140;17.184;2023-12-20T00:25:51;99515.72;;;7.74;86.13
59877;BME280;74472;51.140;17.184;2023-12-20T00:28:16;99520.25;;;7.72;85.99
59877;BME280;74472;51.140;17.184;2023-12-20T00:30:41;99517.53;;;7.74;86.24
59877;BME280;74472;51.140;17.184;2023-12-20T00:33:06;99518.34;;;7.74;86.52
59877;BME280;74472;51.140;17.184;2023-12-20T00:35:32;99526.25;;;7.74;86.13
59877;BME280;74472;51.140;17.184;2023-12-20T00:37:58;99525.41;;;7.74;86.33
59877;BME280;74472;51.140;17.184;2023-12-20T00:40:23;99527.06;;;7.75;86.30
59877;BME280;74472;51.140;17.184;2023-12-20T00:42:49;99528.03;;;7.74;86.54
59877;BME280;74472;51.140;17.184;2023-12-20T00:45:14;99514.78;;;7.75;86.37
59877;BME280;74472;51.140;17.184;2023-12-20T00:47:40;99508.69;;;7.75;86.45
59877;BME280;74472;51.140;17.184;2023-12-20T00:50:06;99512.28;;;7.74;86.45
59877;BME280;74472;51.140;17.184;2023-12-20T00:52:31;99506.28;;;7.72;86.40
59877;BME280;74472;51.140;17.184;2023-12-20T00:54:56;99507.25;;;7.71;86.81
59877;BME280;74472;51.140;17.184;2023-12-20T00:57:22;99511.28;;;7.64;86.68
59877;BME280;74472;51.140;17.184;2023-12-20T00:59:47;99519.03;;;7.65;86.74
59877;BME280;74472;51.140;17.184;2023-12-20T01:02:13;99489.16;;;7.55;87.06
59877;BME280;74472;51.140;17.184;2023-12-20T01:04:38;99509.72;;;7.61;87.22
59877;BME280;74472;51.140;17.184;2023-12-20T01:07:04;99496.19;;;7.55;87.39
59877;BME280;74472;51.140;17.184;2023-12-20T01:09:29;99509.59;;;7.63;87.32
59877;BME280;74472;51.140;17.184;2023-12-20T01:11:54;99496.34;;;7.64;87.51
59877;BME280;74472;51.140;17.184;2023-12-20T01:14:19;99493.50;;;7.67;87.33
59877;BME280;74472;51.140;17.184;2023-12-20T01:16:45;99494.81;;;7.73;87.40
59877;BME280;74472;51.140;17.184;2023-12-20T01:19:10;99500.28;;;7.70;87.31
59877;BME280;74472;51.140;17.184;2023-12-20T01:21:36;99490.03;;;7.67;87.66
59877;BME280;74472;51.140;17.184;2023-12-20T01:24:01;99491.09;;;7.64;87.81
59877;BME280;74472;51.140;17.184;2023-12-20T01:26:26;99497.94;;;7.67;87.85
59877;BME280;74472;51.140;17.184;2023-12-20T01:28:52;99495.31;;;7.67;87.76
59877;BME280;74472;51.140;17.184;2023-12-20T01:31:18;99493.13;;;7.61;87.83
59877;BME280;74472;51.140;17.184;2023-12-20T01:33:43;99494.03;;;7.60;88.01
59877;BME280;74472;51.140;17.184;2023-12-20T01:36:09;99481.28;;;7.55;88.34
59877;BME280;74472;51.140;17.184;2023-12-20T01:38:34;99492.81;;;7.52;88.47
59877;BME280;74472;51.140;17.184;2023-12-20T01:40:59;99480.06;;;7.48;88.58
59877;BME280;74472;51.140;17.184;2023-12-20T01:43:25;99468.72;;;7.47;88.73
59877;BME280;74472;51.140;17.184;2023-12-20T01:45:51;99480.06;;;7.48;88.83
59877;BME280;74472;51.140;17.184;2023-12-20T01:48:18;99469.41;;;7.49;89.03
59877;BME280;74472;51.140;17.184;2023-12-20T01:50:45;99463.25;;;7.50;89.04
59877;BME280;74472;51.140;17.184;2023-12-20T01:53:12;99468.50;;;7.50;89.09
59877;BME280;74472;51.140;17.184;2023-12-20T01:55:39;99465.00;;;7.50;89.30
59877;BME280;74472;51.140;17.184;2023-12-20T01:58:06;99440.53;;;7.49;89.43
59877;BME280;74472;51.140;17.184;2023-12-20T02:00:31;99452.38;;;7.55;89.25
59877;BME280;74472;51.140;17.184;2023-12-20T02:03:01;99453.22;;;7.56;89.30
59877;BME280;74472;51.140;17.184;2023-12-20T02:05:27;99445.78;;;7.49;89.24
59877;BME280;74472;51.140;17.184;2023-12-20T02:07:53;99458.00;;;7.50;89.30
59877;BME280;74472;51.140;17.184;2023-12-20T02:10:18;99453.19;;;7.44;89.61
59877;BME280;74472;51.140;17.184;2023-12-20T02:12:44;99446.25;;;7.43;89.93
59877;BME280;74472;51.140;17.184;2023-12-20T02:15:09;99443.53;;;7.45;89.46
59877;BME280;74472;51.140;17.184;2023-12-20T02:17:36;99443.53;;;7.45;89.86
59877;BME280;74472;51.140;17.184;2023-12-20T02:20:01;99446.59;;;7.39;89.56
59877;BME280;74472;51.140;17.184;2023-12-20T02:22:27;99449.34;;;7.37;89.96
59877;BME280;74472;51.140;17.184;2023-12-20T02:24:53;99443.38;;;7.35;89.90
59877;BME280;74472;51.140;17.184;2023-12-20T02:27:19;99447.66;;;7.36;89.93
59877;BME280;74472;51.140;17.184;2023-12-20T02:29:47;99433.81;;;7.34;89.84
59877;BME280;74472;51.140;17.184;2023-12-20T02:32:12;99437.38;;;7.33;90.03
59877;BME280;74472;51.140;17.184;2023-12-20T02:34:38;99439.16;;;7.33;90.13
59877;BME280;74472;51.140;17.184;2023-12-20T02:37:03;99437.72;;;7.28;89.91
59877;BME280;74472;51.140;17.184;2023-12-20T02:39:28;99435.19;;;7.27;89.74
59877;BME280;74472;51.140;17.184;2023-12-20T02:41:54;99446.16;;;7.21;89.89
59877;BME280;74472;51.140;17.184;2023-12-20T02:44:19;99441.97;;;7.18;89.92
59877;BME280;74472;51.140;17.184;2023-12-20T02:46:44;99426.88;;;7.09;90.20
59877;BME280;74472;51.140;17.184;2023-12-20T02:49:09;99434.88;;;7.08;90.02
59877;BME280;74472;51.140;17.184;2023-12-20T02:51:35;99429.63;;;7.08;90.11
59877;BME280;74472;51.140;17.184;2023-12-20T02:54:03;99428.78;;;7.07;90.25
59877;BME280;74472;51.140;17.184;2023-12-20T02:56:28;99427.53;;;7.00;90.01
59877;BME280;74472;51.140;17.184;2023-12-20T02:58:53;99421.06;;;6.93;90.42
59877;BME280;74472;51.140;17.184;2023-12-20T03:01:19;99414.25;;;6.90;90.33
59877;BME280;74472;51.140;17.184;2023-12-20T03:03:44;99406.59;;;6.87;90.46
59877;BME280;74472;51.140;17.184;2023-12-20T03:06:10;99409.22;;;6.87;90.73
59877;BME280;74472;51.140;17.184;2023-12-20T03:08:35;99400.53;;;6.87;90.49
59877;BME280;74472;51.140;17.184;2023-12-20T03:11:00;99395.63;;;6.82;90.63
59877;BME280;74472;51.140;17.184;2023-12-20T03:13:26;99389.63;;;6.80;90.81
59877;BME280;74472;51.140;17.184;2023-12-20T03:15:51;99406.00;;;6.84;90.88
59877;BME280;74472;51.140;17.184;2023-12-20T03:18:16;99408.50;;;6.85;90.69
59877;BME280;74472;51.140;17.184;2023-12-20T03:20:43;99407.91;;;6.81;90.78
59877;BME280;74472;51.140;17.184;2023-12-20T03:23:08;99410.84;;;6.77;91.03
59877;BME280;74472;51.140;17.184;2023-12-20T03:25:33;99409.03;;;6.77;91.05
59877;BME280;74472;51.140;17.184;2023-12-20T03:28:01;99411.06;;;6.74;90.96
59877;BME280;74472;51.140;17.184;2023-12-20T03:30:26;99406.16;;;6.69;91.31
59877;BME280;74472;51.140;17.184;2023-12-20T03:32:52;99397.75;;;6.64;91.32
59877;BME280;74472;51.140;17.184;2023-12-20T03:35:17;99409.81;;;6.67;91.55
59877;BME280;74472;51.140;17.184;2023-12-20T03:37:42;99395.25;;;6.63;91.54
59877;BME280;74472;51.140;17.184;2023-12-20T03:40:08;99399.44;;;6.65;91.55
59877;BME280;74472;51.140;17.184;2023-12-20T03:42:33;99406.25;;;6.68;91.41
59877;BME280;74472;51.140;17.184;2023-12-20T03:44:58;99397.13;;;6.61;91.28
59877;BME280;74472;51.140;17.184;2023-12-20T03:47:24;99391.63;;;6.52;91.15
59877;BME280;74472;51.140;17.184;2023-12-20T03:49:49;99405.44;;;6.54;91.41
59877;BME280;74472;51.140;17.184;2023-12-20T03:52:14;99405.44;;;6.54;91.66
59877;BME280;74472;51.140;17.184;2023-12-20T03:54:40;99403.34;;;6.47;91.68
59877;BME280;74472;51.140;17.184;2023-12-20T03:57:07;99412.69;;;6.51;91.68
59877;BME280;74472;51.140;17.184;2023-12-20T03:59:37;99414.47;;;6.50;91.53
59877;BME280;74472;51.140;17.184;2023-12-20T04:02:02;99409.66;;;6.44;91.49
59877;BME280;74472;51.140;17.184;2023-12-20T04:04:28;99425.50;;;6.43;91.82
59877;BME280;74472;51.140;17.184;2023-12-20T04:06:53;99409.97;;;6.40;91.81
59877;BME280;74472;51.140;17.184;2023-12-20T04:09:18;99411.78;;;6.39;91.73
59877;BME280;74472;51.140;17.184;2023-12-20T04:11:44;99419.00;;;6.36;91.72
59877;BME280;74472;51.140;17.184;2023-12-20T04:14:09;99416.19;;;6.39;92.06
59877;BME280;74472;51.140;17.184;2023-12-20T04:16:35;99406.63;;;6.38;91.94
59877;BME280;74472;51.140;17.184;2023-12-20T04:19:00;99408.31;;;6.39;91.89
59877;BME280;74472;51.140;17.184;2023-12-20T04:21:26;99404.63;;;6.41;91.88
59877;BME280;74472;51.140;17.184;2023-12-20T04:23:51;99412.38;;;6.43;91.83
59877;BME280;74472;51.140;17.184;2023-12-20T04:26:16;99414.28;;;6.41;91.75
59877;BME280;74472;51.140;17.184;2023-12-20T04:28:42;99407.69;;;6.35;92.02
59877;BME280;74472;51.140;17.184;2023-12-20T04:31:07;99407.44;;;6.38;91.97
59877;BME280;74472;51.140;17.184;2023-12-20T04:33:32;99400.75;;;6.34;91.86
59877;BME280;74472;51.140;17.184;2023-12-20T04:35:58;99411.78;;;6.39;91.95
59877;BME280;74472;51.140;17.184;2023-12-20T04:38:23;99397.94;;;6.37;92.16
59877;BME280;74472;51.140;17.184;2023-12-20T04:40:48;99404.63;;;6.41;91.95
59877;BME280;74472;51.140;17.184;2023-12-20T04:43:14;99403.06;;;6.39;91.76
59877;BME280;74472;51.140;17.184;2023-12-20T04:45:39;99421.00;;;6.32;92.05
59877;BME280;74472;51.140;17.184;2023-12-20T04:48:05;99410.31;;;6.35;92.14
59877;BME280;74472;51.140;17.184;2023-12-20T04:50:30;99403.38;;;6.34;92.00
59877;BME280;74472;51.140;17.184;2023-12-20T04:52:56;99406.53;;;6.26;92.13
59877;BME280;74472;51.140;17.184;2023-12-20T04:55:21;99394.28;;;6.27;92.21
59877;BME280;74472;51.140;17.184;2023-12-20T04:57:46;99388.81;;;6.30;92.05
59877;BME280;74472;51.140;17.184;2023-12-20T05:00:12;99391.66;;;6.27;92.04
59877;BME280;74472;51.140;17.184;2023-12-20T05:02:37;99383.06;;;6.25;92.22
59877;BME280;74472;51.140;17.184;2023-12-20T05:05:03;99390.81;;;6.26;92.05
59877;BME280;74472;51.140;17.184;2023-12-20T05:07:28;99393.31;;;6.28;92.12
59877;BME280;74472;51.140;17.184;2023-12-20T05:09:53;99387.47;;;6.24;91.93
59877;BME280;74472;51.140;17.184;2023-12-20T05:12:19;99387.47;;;6.24;92.08
59877;BME280;74472;51.140;17.184;2023-12-20T05:14:45;99380.56;;;6.23;92.24
59877;BME280;74472;51.140;17.184;2023-12-20T05:17:11;99375.31;;;6.23;92.46
59877;BME280;74472;51.140;17.184;2023-12-20T05:19:36;99383.06;;;6.25;92.27
59877;BME280;74472;51.140;17.184;2023-12-20T05:22:01;99384.97;;;6.23;92.25
59877;BME280;74472;51.140;17.184;2023-12-20T05:24:27;99381.38;;;6.24;92.43
59877;BME280;74472;51.140;17.184;2023-12-20T05:26:52;99381.38;;;6.24;92.36
59877;BME280;74472;51.140;17.184;2023-12-20T05:29:18;99382.84;;;6.15;92.46
59877;BME280;74472;51.140;17.184;2023-12-20T05:31:43;99385.16;;;6.20;92.50
59877;BME280;74472;51.140;17.184;2023-12-20T05:34:08;99380.88;;;6.19;92.57
59877;BME280;74472;51.140;17.184;2023-12-20T05:36:34;99392.06;;;6.21;92.63
59877;BME280;74472;51.140;17.184;2023-12-20T05:38:59;99395.44;;;6.23;92.70
59877;BME280;74472;51.140;17.184;2023-12-20T05:41:24;99391.88;;;6.24;92.61
59877;BME280;74472;51.140;17.184;2023-12-20T05:43:49;99404.22;;;6.22;92.60
59877;BME280;74472;51.140;17.184;2023-12-20T05:46:15;99394.19;;;6.16;92.50
59877;BME280;74472;51.140;17.184;2023-12-20T05:48:40;99397.03;;;6.13;92.63
59877;BME280;74472;51.140;17.184;2023-12-20T05:51:05;99399.72;;;6.11;92.93
59877;BME280;74472;51.140;17.184;2023-12-20T05:53:31;99392.00;;;6.09;92.58
59877;BME280;74472;51.140;17.184;2023-12-20T05:55:56;99402.25;;;6.13;93.12
59877;BME280;74472;51.140;17.184;2023-12-20T05:58:21;99390.22;;;6.10;92.99
59877;BME280;74472;51.140;17.184;2023-12-20T06:00:46;99391.03;;;6.10;93.05
59877;BME280;74472;51.140;17.184;2023-12-20T06:03:13;99394.41;;;6.13;93.05
59877;BME280;74472;51.140;17.184;2023-12-20T06:05:39;99391.03;;;6.10;93.07
59877;BME280;74472;51.140;17.184;2023-12-20T06:08:04;99396.19;;;6.12;92.98
59877;BME280;74472;51.140;17.184;2023-12-20T06:10:30;99403.19;;;6.11;93.09
59877;BME280;74472;51.140;17.184;2023-12-20T06:12:55;99399.31;;;6.17;93.20
59877;BME280;74472;51.140;17.184;2023-12-20T06:15:21;99386.44;;;6.14;93.26
59877;BME280;74472;51.140;17.184;2023-12-20T06:17:47;99386.22;;;6.17;93.28
59877;BME280;74472;51.140;17.184;2023-12-20T06:20:12;99381.50;;;6.09;93.17
59877;BME280;74472;51.140;17.184;2023-12-20T06:22:38;99394.91;;;6.18;93.29
59877;BME280;74472;51.140;17.184;2023-12-20T06:25:04;99385.25;;;6.18;93.26
59877;BME280;74472;51.140;17.184;2023-12-20T06:27:29;99400.69;;;6.23;93.40
59877;BME280;74472;51.140;17.184;2023-12-20T06:29:57;99375.84;;;6.16;93.10
59877;BME280;74472;51.140;17.184;2023-12-20T06:32:23;99386.13;;;6.19;93.22
59877;BME280;74472;51.140;17.184;2023-12-20T06:34:48;99384.75;;;6.13;93.42
59877;BME280;74472;51.140;17.184;2023-12-20T06:37:14;99393.31;;;6.15;93.60
59877;BME280;74472;51.140;17.184;2023-12-20T06:39:40;99392.63;;;6.13;93.51
59877;BME280;74472;51.140;17.184;2023-12-20T06:42:05;99400.34;;;6.15;93.49
59877;BME280;74472;51.140;17.184;2023-12-20T06:44:31;99393.66;;;6.10;93.46
59877;BME280;74472;51.140;17.184;2023-12-20T06:46:56;99395.53;;;6.08;93.47
59877;BME280;74472;51.140;17.184;2023-12-20T06:49:22;99398.16;;;6.08;93.44
59877;BME280;74472;51.140;17.184;2023-12-20T06:51:50;99401.72;;;6.07;93.29
59877;BME280;74472;51.140;17.184;2023-12-20T06:54:18;99406.13;;;6.07;93.46
59877;BME280;74472;51.140;17.184;2023-12-20T06:56:51;99400.06;;;6.06;93.44
59877;BME280;74472;51.140;17.184;2023-12-20T06:59:16;99402.88;;;6.03;93.27
59877;BME280;74472;51.140;17.184;2023-12-20T07:01:41;99410.13;;;6.00;93.56
59877;BME280;74472;51.140;17.184;2023-12-20T07:04:07;99406.75;;;5.98;93.79
59877;BME280;74472;51.140;17.184;2023-12-20T07:06:32;99413.56;;;6.00;93.69
59877;BME280;74472;51.140;17.184;2023-12-20T07:08:57;99406.66;;;5.99;93.82
59877;BME280;74472;51.140;17.184;2023-12-20T07:11:23;99422.25;;;6.01;93.66
59877;BME280;74472;51.140;17.184;2023-12-20T07:13:48;99412.00;;;5.98;93.58
59877;BME280;74472;51.140;17.184;2023-12-20T07:16:14;99415.56;;;5.97;93.90
59877;BME280;74472;51.140;17.184;2023-12-20T07:18:40;99418.06;;;5.98;93.73
59877;BME280;74472;51.140;17.184;2023-12-20T07:21:05;99410.94;;;6.00;93.79
59877;BME280;74472;51.140;17.184;2023-12-20T07:23:30;99413.44;;;6.02;94.01
59877;BME280;74472;51.140;17.184;2023-12-20T07:25:55;99418.59;;;6.03;93.80
59877;BME280;74472;51.140;17.184;2023-12-20T07:28:21;99422.25;;;6.01;93.84
59877;BME280;74472;51.140;17.184;2023-12-20T07:30:46;99415.16;;;6.03;93.70
59877;BME280;74472;51.140;17.184;2023-12-20T07:33:12;99427.41;;;6.02;93.70
59877;BME280;74472;51.140;17.184;2023-12-20T07:35:37;99420.38;;;6.03;94.00
59877;BME280;74472;51.140;17.184;2023-12-20T07:38:03;99427.16;;;6.05;94.01
59877;BME280;74472;51.140;17.184;2023-12-20T07:40:28;99434.09;;;6.06;94.04
59877;BME280;74472;51.140;17.184;2023-12-20T07:42:54;99423.63;;;6.06;93.93
59877;BME280;74472;51.140;17.184;2023-12-20T07:45:19;99417.03;;;6.01;93.99
59877;BME280;74472;51.140;17.184;2023-12-20T07:47:44;99412.00;;;5.98;93.84
59877;BME280;74472;51.140;17.184;2023-12-20T07:50:10;99423.41;;;5.97;93.71
59877;BME280;74472;51.140;17.184;2023-12-20T07:52:35;99420.16;;;5.93;94.09
59877;BME280;74472;51.140;17.184;2023-12-20T07:55:00;99421.84;;;5.94;94.11
59877;BME280;74472;51.140;17.184;2023-12-20T07:57:28;99419.38;;;5.91;94.04
59877;BME280;74472;51.140;17.184;2023-12-20T07:59:54;99432.31;;;5.94;94.01
59877;BME280;74472;51.140;17.184;2023-12-20T08:02:19;99435.75;;;5.95;94.15
59877;BME280;74472;51.140;17.184;2023-12-20T08:04:45;99424.63;;;5.91;94.01
59877;BME280;74472;51.140;17.184;2023-12-20T08:07:10;99432.47;;;5.91;94.08
59877;BME280;74472;51.140;17.184;2023-12-20T08:09:35;99430.69;;;5.92;94.02
59877;BME280;74472;51.140;17.184;2023-12-20T08:12:01;99436.59;;;5.95;94.15
59877;BME280;74472;51.140;17.184;2023-12-20T08:14:27;99433.31;;;5.92;94.04
59877;BME280;74472;51.140;17.184;2023-12-20T08:16:52;99425.59;;;5.90;94.16
59877;BME280;74472;51.140;17.184;2023-12-20T08:19:17;99437.94;;;5.88;94.14
59877;BME280;74472;51.140;17.184;2023-12-20T08:21:43;99427.84;;;5.82;94.31
59877;BME280;74472;51.140;17.184;2023-12-20T08:24:08;99440.88;;;5.83;94.19
59877;BME280;74472;51.140;17.184;2023-12-20T08:26:33;99427.84;;;5.82;94.32
59877;BME280;74472;51.140;17.184;2023-12-20T08:28:59;99433.31;;;5.79;94.38
59877;BME280;74472;51.140;17.184;2023-12-20T08:31:24;99450.72;;;5.80;94.50
59877;BME280;74472;51.140;17.184;2023-12-20T08:33:49;99449.22;;;5.76;94.67
59877;BME280;74472;51.140;17.184;2023-12-20T08:36:15;99438.66;;;5.77;94.53
59877;BME280;74472;51.140;17.184;2023-12-20T08:38:42;99440.44;;;5.77;94.56
59877;BME280;74472;51.140;17.184;2023-12-20T08:41:08;99436.03;;;5.77;94.92
59877;BME280;74472;51.140;17.184;2023-12-20T08:43:34;99446.38;;;5.79;94.53
59877;BME280;74472;51.140;17.184;2023-12-20T08:45:59;99449.13;;;5.77;94.46
59877;BME280;74472;51.140;17.184;2023-12-20T08:48:24;99456.97;;;5.77;94.64
59877;BME280;74472;51.140;17.184;2023-12-20T08:50:50;99452.06;;;5.73;94.87
59877;BME280;74472;51.140;17.184;2023-12-20T08:53:20;99459.91;;;5.73;94.66
59877;BME280;74472;51.140;17.184;2023-12-20T08:55:47;99465.16;;;5.73;94.97
59877;BME280;74472;51.140;17.184;2023-12-20T08:58:13;99464.91;;;5.76;94.91
59877;BME280;74472;51.140;17.184;2023-12-20T09:00:38;99460.63;;;5.75;94.90
59877;BME280;74472;51.140;17.184;2023-12-20T09:03:04;99459.03;;;5.72;95.05
59877;BME280;74472;51.140;17.184;2023-12-20T09:05:29;99454.44;;;5.76;94.96
59877;BME280;74472;51.140;17.184;2023-12-20T09:07:55;99457.94;;;5.76;94.97
59877;BME280;74472;51.140;17.184;2023-12-20T09:10:20;99469.22;;;5.77;95.02
59877;BME280;74472;51.140;17.184;2023-12-20T09:12:51;99464.09;;;5.75;95.11
59877;BME280;74472;51.140;17.184;2023-12-20T09:15:16;99467.53;;;5.76;95.12
59877;BME280;74472;51.140;17.184;2023-12-20T09:17:42;99470.16;;;5.76;95.07
59877;BME280;74472;51.140;17.184;2023-12-20T09:20:09;99477.09;;;5.77;95.28
59877;BME280;74472;51.140;17.184;2023-12-20T09:22:34;99469.31;;;5.75;95.37
59877;BME280;74472;51.140;17.184;2023-12-20T09:25:00;99472.78;;;5.76;95.13
59877;BME280;74472;51.140;17.184;2023-12-20T09:27:27;99478.00;;;5.76;95.30
59877;BME280;74472;51.140;17.184;2023-12-20T09:29:52;99467.66;;;5.74;95.15
59877;BME280;74472;51.140;17.184;2023-12-20T09:32:18;99483.16;;;5.77;95.17
59877;BME280;74472;51.140;17.184;2023-12-20T09:34:45;99479.72;;;5.77;95.33
59877;BME280;74472;51.140;17.184;2023-12-20T09:37:10;99475.38;;;5.76;95.35
59877;BME280;74472;51.140;17.184;2023-12-20T09:39:36;99477.09;;;5.77;95.30
59877;BME280;74472;51.140;17.184;2023-12-20T09:42:03;99471.66;;;5.80;95.47
59877;BME280;74472;51.140;17.184;2023-12-20T09:44:29;99480.22;;;5.82;95.31
59877;BME280;74472;51.140;17.184;2023-12-20T09:46:56;99480.84;;;5.85;95.46
59877;BME280;74472;51.140;17.184;2023-12-20T09:49:21;99471.97;;;5.88;95.30
59877;BME280;74472;51.140;17.184;2023-12-20T09:51:47;99454.03;;;5.82;95.21
59877;BME280;74472;51.140;17.184;2023-12-20T09:54:15;99461.59;;;5.86;95.40
59877;BME280;74472;51.140;17.184;2023-12-20T09:56:41;99468.44;;;5.89;95.44
59877;BME280;74472;51.140;17.184;2023-12-20T09:59:07;99457.66;;;5.94;95.26
59877;BME280;74472;51.140;17.184;2023-12-20T10:01:33;99456.84;;;5.93;95.17
59877;BME280;74472;51.140;17.184;2023-12-20T10:04:00;99458.28;;;5.97;95.20
59877;BME280;74472;51.140;17.184;2023-12-20T10:06:25;99445.09;;;5.99;95.44
59877;BME280;74472;51.140;17.184;2023-12-20T10:08:50;99443.94;;;6.03;95.19
59877;BME280;74472;51.140;17.184;2023-12-20T10:11:16;99445.81;;;6.01;95.08
59877;BME280;74472;51.140;17.184;2023-12-20T10:13:43;99445.63;;;6.04;95.31
59877;BME280;74472;51.140;17.184;2023-12-20T10:16:08;99455.78;;;6.08;95.15
59877;BME280;74472;51.140;17.184;2023-12-20T10:18:33;99456.63;;;6.09;95.09
59877;BME280;74472;51.140;17.184;2023-12-20T10:21:00;99450.53;;;6.08;94.83
59877;BME280;74472;51.140;17.184;2023-12-20T10:23:25;99435.34;;;6.01;94.71
59877;BME280;74472;51.140;17.184;2023-12-20T10:26:00;99449.28;;;6.01;94.50
59877;BME280;74472;51.140;17.184;2023-12-20T10:28:26;99456.72;;;6.07;94.72
59877;BME280;74472;51.140;17.184;2023-12-20T10:30:53;99455.97;;;6.05;94.82
59877;BME280;74472;51.140;17.184;2023-12-20T10:33:24;99450.53;;;6.08;94.72
59877;BME280;74472;51.140;17.184;2023-12-20T10:35:50;99438.59;;;6.04;94.51
59877;BME280;74472;51.140;17.184;2023-12-20T10:38:16;99435.25;;;6.02;94.44
59877;BME280;74472;51.140;17.184;2023-12-20T10:40:42;99448.34;;;6.02;94.29
59877;BME280;74472;51.140;17.184;2023-12-20T10:43:08;99446.78;;;6.00;94.14
59877;BME280;74472;51.140;17.184;2023-12-20T10:45:33;99445.19;;;5.97;94.15
59877;BME280;74472;51.140;17.184;2023-12-20T10:47:59;99444.88;;;6.02;94.15
59877;BME280;74472;51.140;17.184;2023-12-20T10:50:27;99431.34;;;5.95;93.89
59877;BME280;74472;51.140;17.184;2023-12-20T10:52:57;99440.72;;;5.99;93.86
59877;BME280;74472;51.140;17.184;2023-12-20T10:55:23;99446.88;;;5.98;93.64
59877;BME280;74472;51.140;17.184;2023-12-20T10:57:52;99447.41;;;6.03;93.38
59877;BME280;74472;51.140;17.184;2023-12-20T11:00:21;99438.91;;;6.00;93.12
59877;BME280;74472;51.140;17.184;2023-12-20T11:02:49;99435.56;;;5.98;93.27
59877;BME280;74472;51.140;17.184;2023-12-20T11:05:33;99424.78;;;6.02;94.15
59877;BME280;74472;51.140;17.184;2023-12-20T11:08:10;99422.47;;;6.10;93.95
59877;BME280;74472;51.140;17.184;2023-12-20T11:10:48;99424.97;;;6.25;94.37
59877;BME280;74472;51.140;17.184;2023-12-20T11:13:44;99419.31;;;6.31;93.54
59877;BME280;74472;51.140;17.184;2023-12-20T11:16:07;99415.84;;;6.30;92.99
59877;BME280;74472;51.140;17.184;2023-12-20T11:18:33;99415.03;;;6.30;93.21
59877;BME280;74472;51.140;17.184;2023-12-20T11:21:03;99414.91;;;6.31;92.75
59877;BME280;74472;51.140;17.184;2023-12-20T11:23:30;99421.63;;;6.36;92.84
59877;BME280;74472;51.140;17.184;2023-12-20T11:25:56;99413.56;;;6.39;92.99
59877;BME280;74472;51.140;17.184;2023-12-20T11:28:26;99405.47;;;6.42;93.21
59877;BME280;74472;51.140;17.184;2023-12-20T11:30:55;99405.03;;;6.48;93.22
59877;BME280;74472;51.140;17.184;2023-12-20T11:33:22;99405.13;;;6.59;93.53
59877;BME280;74472;51.140;17.184;2023-12-20T11:35:48;99387.59;;;6.60;92.67
59877;BME280;74472;51.140;17.184;2023-12-20T11:38:14;99390.75;;;6.65;92.35
59877;BME280;74472;51.140;17.184;2023-12-20T11:40:41;99388.75;;;6.68;91.90
59877;BME280;74472;51.140;17.184;2023-12-20T11:43:07;99385.25;;;6.68;91.78
59877;BME280;74472;51.140;17.184;2023-12-20T11:45:33;99381.94;;;6.66;91.47
59877;BME280;74472;51.140;17.184;2023-12-20T11:48:01;99371.31;;;6.67;91.40
59877;BME280;74472;51.140;17.184;2023-12-20T11:50:27;99361.66;;;6.68;91.45
59877;BME280;74472;51.140;17.184;2023-12-20T11:52:53;99360.97;;;6.66;91.30
59877;BME280;74472;51.140;17.184;2023-12-20T11:55:20;99373.50;;;6.73;91.30
59877;BME280;74472;51.140;17.184;2023-12-20T11:57:46;99364.69;;;6.74;91.23
59877;BME280;74472;51.140;17.184;2023-12-20T12:00:13;99352.31;;;6.76;91.09
59877;BME280;74472;51.140;17.184;2023-12-20T12:02:39;99354.94;;;6.76;90.86
59877;BME280;74472;51.140;17.184;2023-12-20T12:05:04;99363.41;;;6.80;90.66
59877;BME280;74472;51.140;17.184;2023-12-20T12:07:31;99353.88;;;6.79;90.30
59877;BME280;74472;51.140;17.184;2023-12-20T12:09:56;99340.78;;;6.79;90.35
59877;BME280;74472;51.140;17.184;2023-12-20T12:12:22;99328.84;;;6.75;89.78
59877;BME280;74472;51.140;17.184;2023-12-20T12:14:48;99328.63;;;6.78;89.79
59877;BME280;74472;51.140;17.184;2023-12-20T12:17:14;99331.94;;;6.80;89.77
59877;BME280;74472;51.140;17.184;2023-12-20T12:19:40;99323.38;;;6.78;88.82
59877;BME280;74472;51.140;17.184;2023-12-20T12:22:11;99319.91;;;6.77;88.81
59877;BME280;74472;51.140;17.184;2023-12-20T12:24:40;99316.56;;;6.75;89.31
59877;BME280;74472;51.140;17.184;2023-12-20T12:27:08;99317.41;;;6.76;89.01
59877;BME280;74472;51.140;17.184;2023-12-20T12:29:34;99313.94;;;6.75;89.02
59877;BME280;74472;51.140;17.184;2023-12-20T12:32:00;99312.16;;;6.76;88.65
59877;BME280;74472;51.140;17.184;2023-12-20T12:34:29;99313.94;;;6.75;88.67
59877;BME280;74472;51.140;17.184;2023-12-20T12:36:55;99306.19;;;6.74;88.74
59877;BME280;74472;51.140;17.184;2023-12-20T12:39:20;99305.34;;;6.73;88.67
59877;BME280;74472;51.140;17.184;2023-12-20T12:41:46;99306.19;;;6.74;88.32
59877;BME280;74472;51.140;17.184;2023-12-20T12:44:12;99303.47;;;6.75;88.21
59877;BME280;74472;51.140;17.184;2023-12-20T12:46:37;99308.78;;;6.74;87.88
59877;BME280;74472;51.140;17.184;2023-12-20T12:49:03;99295.06;;;6.70;88.03
59877;BME280;74472;51.140;17.184;2023-12-20T12:51:29;99294.97;;;6.72;88.05
59877;BME280;74472;51.140;17.184;2023-12-20T12:53:54;99300.00;;;6.75;88.04